createdAt,value
2023-05-04T00:02:14.054Z,28.56
2023-05-04T00:04:42.759Z,28.57
2023-05-04T00:07:10.969Z,28.30
2023-05-04T00:09:40.458Z,28.28
2023-05-04T00:12:09.029Z,28.24
2023-05-04T00:14:37.131Z,28.19
2023-05-04T00:17:06.664Z,28.38
2023-05-04T00:19:35.344Z,28.55
2023-05-04T00:22:03.684Z,28.24
2023-05-04T00:24:31.671Z,28.46
2023-05-04T00:27:01.193Z,28.40
2023-05-04T00:29:29.705Z,28.40
2023-05-04T00:31:58.214Z,28.28
2023-05-04T00:34:26.292Z,28.34
2023-05-04T00:36:54.337Z,28.55
2023-05-04T00:39:22.623Z,28.36
2023-05-04T00:41:50.742Z,28.29
2023-05-04T00:44:23.426Z,28.33
2023-05-04T00:46:52.451Z,28.37
2023-05-04T00:49:22.185Z,28.01
2023-05-04T00:51:51.365Z,28.21
2023-05-04T00:54:20.973Z,28.34
2023-05-04T00:56:49.190Z,28.07
2023-05-04T00:59:18.934Z,28.07
2023-05-04T01:01:47.100Z,28.14
2023-05-04T01:04:16.131Z,27.99
2023-05-04T01:06:49.005Z,28.25
2023-05-04T01:09:25.223Z,28.48
2023-05-04T01:11:59.516Z,28.16
2023-05-04T01:14:30.953Z,28.33
2023-05-04T01:17:00.389Z,27.93
2023-05-04T01:19:29.292Z,28.04
2023-05-04T01:21:58.832Z,28.01
2023-05-04T01:24:27.935Z,28.32
2023-05-04T01:27:02.409Z,28.21
2023-05-04T01:29:35.919Z,28.13
2023-05-04T01:32:04.885Z,27.95
2023-05-04T01:34:32.880Z,27.89
2023-05-04T01:37:03.736Z,27.98
2023-05-04T01:39:31.713Z,28.08
2023-05-04T01:42:00.069Z,28.05
2023-05-04T01:44:28.153Z,28.05
2023-05-04T01:46:56.186Z,28.10
2023-05-04T01:49:24.251Z,27.94
2023-05-04T01:51:52.170Z,28.02
2023-05-04T01:54:21.590Z,28.01
2023-05-04T01:56:49.705Z,28.09
2023-05-04T01:59:17.846Z,27.87
2023-05-04T02:01:45.995Z,28.14
2023-05-04T02:04:14.165Z,28.09
2023-05-04T02:06:42.151Z,28.10
2023-05-04T02:09:10.151Z,27.86
2023-05-04T02:11:39.454Z,28.11
2023-05-04T02:14:07.405Z,28.11
2023-05-04T02:16:35.515Z,27.74
2023-05-04T02:19:03.507Z,27.86
2023-05-04T02:21:31.464Z,27.77
2023-05-04T02:23:59.476Z,27.83
2023-05-04T02:26:27.530Z,27.99
2023-05-04T02:28:56.893Z,28.15
2023-05-04T02:31:25.157Z,28.19
2023-05-04T02:33:54.013Z,28.03
2023-05-04T02:36:22.376Z,28.03
2023-05-04T02:38:51.296Z,28.16
2023-05-04T02:41:19.445Z,28.08
2023-05-04T02:43:47.613Z,27.96
2023-05-04T02:46:17.104Z,27.77
2023-05-04T02:48:45.149Z,28.24
2023-05-04T02:51:13.279Z,28.28
2023-05-04T02:53:41.303Z,28.11
2023-05-04T02:56:09.309Z,28.13
2023-05-04T02:58:37.307Z,27.92
2023-05-04T03:01:05.416Z,28.02
2023-05-04T03:03:34.811Z,28.10
2023-05-04T03:06:02.819Z,27.91
2023-05-04T03:08:30.943Z,28.03
2023-05-04T03:10:58.983Z,27.82
2023-05-04T03:13:27.007Z,28.04
2023-05-04T03:15:55.088Z,27.77
2023-05-04T03:18:23.451Z,28.04
2023-05-04T03:20:53.339Z,27.85
2023-05-04T03:23:22.943Z,27.76
2023-05-04T03:25:51.427Z,27.72
2023-05-04T03:28:20.140Z,27.88
2023-05-04T03:30:48.461Z,27.76
2023-05-04T03:33:16.662Z,27.92
2023-05-04T03:35:44.884Z,28.06
2023-05-04T03:38:14.372Z,27.89
2023-05-04T03:40:44.694Z,27.79
2023-05-04T03:43:13.937Z,27.64
2023-05-04T03:45:41.974Z,27.46
2023-05-04T03:48:10.081Z,27.84
2023-05-04T03:50:38.167Z,27.48
2023-05-04T03:53:07.013Z,27.78
2023-05-04T03:55:36.688Z,27.51
2023-05-04T03:58:04.781Z,27.29
2023-05-04T04:00:33.587Z,27.25
2023-05-04T04:03:10.014Z,27.35
2023-05-04T04:05:39.188Z,26.92
2023-05-04T04:08:07.596Z,26.84
2023-05-04T04:10:37.153Z,26.73
2023-05-04T04:13:05.335Z,26.46
2023-05-04T04:15:33.434Z,26.42
2023-05-04T04:18:01.543Z,26.60
2023-05-04T04:20:29.556Z,26.39
2023-05-04T04:22:57.496Z,25.86
2023-05-04T04:25:25.504Z,25.89
2023-05-04T04:27:54.964Z,25.82
2023-05-04T04:30:23.284Z,25.84
2023-05-04T04:32:51.175Z,25.56
2023-05-04T04:35:19.274Z,25.54
2023-05-04T04:37:47.229Z,25.28
2023-05-04T04:40:15.418Z,25.23
2023-05-04T04:42:43.338Z,24.68
2023-05-04T04:45:14.790Z,24.50
2023-05-04T04:47:42.828Z,24.52
2023-05-04T04:50:12.048Z,24.13
2023-05-04T04:52:41.324Z,24.29
2023-05-04T04:55:10.257Z,23.88
2023-05-04T04:57:38.239Z,24.21
2023-05-04T05:00:09.451Z,23.90
2023-05-04T05:02:38.936Z,23.65
2023-05-04T05:05:07.727Z,23.40
2023-05-04T05:07:36.398Z,23.42
2023-05-04T05:10:04.799Z,23.46
2023-05-04T05:12:33.198Z,22.95
2023-05-04T05:15:01.284Z,23.28
2023-05-04T05:17:29.326Z,22.78
2023-05-04T05:19:58.742Z,23.17
2023-05-04T05:22:26.692Z,22.79
2023-05-04T05:24:54.630Z,22.52
2023-05-04T05:27:22.653Z,22.46
2023-05-04T05:29:50.637Z,22.27
2023-05-04T05:32:18.735Z,22.25
2023-05-04T05:34:46.660Z,22.43
2023-05-04T05:37:15.985Z,21.98
2023-05-04T05:39:44.058Z,22.18
2023-05-04T05:42:12.325Z,22.07
2023-05-04T05:44:40.350Z,21.84
2023-05-04T05:47:08.459Z,21.83
2023-05-04T05:49:36.440Z,21.72
2023-05-04T05:52:04.444Z,21.72
2023-05-04T05:54:34.173Z,21.70
2023-05-04T05:57:02.462Z,21.41
2023-05-04T05:59:30.807Z,21.20
2023-05-04T06:01:58.919Z,21.32
2023-05-04T06:04:26.935Z,21.21
2023-05-04T06:06:55.029Z,21.31
2023-05-04T06:09:22.986Z,20.99
2023-05-04T06:11:54.046Z,20.94
2023-05-04T06:14:23.424Z,20.81
2023-05-04T06:16:51.348Z,20.62
2023-05-04T06:19:19.844Z,20.65
2023-05-04T06:21:49.975Z,20.24
2023-05-04T06:24:18.056Z,20.22
2023-05-04T06:26:46.331Z,20.11
2023-05-04T06:29:15.840Z,20.02
2023-05-04T06:31:45.027Z,20.01
2023-05-04T06:34:14.129Z,19.81
2023-05-04T06:36:42.332Z,19.98
2023-05-04T06:39:10.445Z,19.90
2023-05-04T06:41:38.439Z,19.50
2023-05-04T06:44:06.718Z,19.40
2023-05-04T06:46:38.029Z,19.27
2023-05-04T06:49:06.362Z,19.31
2023-05-04T06:51:36.266Z,19.23
2023-05-04T06:54:04.321Z,19.21
2023-05-04T06:56:32.568Z,19.08
2023-05-04T06:59:00.637Z,19.53
2023-05-04T07:01:28.717Z,19.26
2023-05-04T07:03:58.899Z,19.21
2023-05-04T07:06:27.517Z,19.44
2023-05-04T07:08:55.523Z,19.40
2023-05-04T07:11:23.537Z,19.35
2023-05-04T07:13:51.640Z,19.48
2023-05-04T07:16:19.771Z,19.41
2023-05-04T07:18:47.903Z,19.62
2023-05-04T07:21:27.694Z,19.86
2023-05-04T07:23:56.758Z,20.50
2023-05-04T07:26:25.117Z,21.07
2023-05-04T07:28:53.267Z,21.25
2023-05-04T07:31:21.618Z,21.58
2023-05-04T07:33:49.603Z,21.25
2023-05-04T07:36:18.895Z,21.80
2023-05-04T07:38:46.921Z,23.87
2023-05-04T07:41:14.909Z,25.72
2023-05-04T07:43:42.948Z,27.27
2023-05-04T07:46:11.082Z,27.44
2023-05-04T07:48:39.307Z,27.82
2023-05-04T07:51:07.620Z,27.97
2023-05-04T07:53:36.965Z,29.06
2023-05-04T07:56:09.780Z,29.30
2023-05-04T07:58:37.890Z,29.40
2023-05-04T08:01:05.967Z,29.81
2023-05-04T08:03:33.949Z,30.50
2023-05-04T08:06:02.031Z,30.60
2023-05-04T08:08:30.417Z,30.33
2023-05-04T08:11:11.714Z,30.01
2023-05-04T08:13:46.437Z,29.38
2023-05-04T08:16:14.783Z,28.77
2023-05-04T08:18:43.463Z,28.01
2023-05-04T08:21:11.860Z,27.49
2023-05-04T08:23:39.913Z,26.78
2023-05-04T08:26:09.284Z,26.28
2023-05-04T08:28:40.469Z,25.50
2023-05-04T08:31:08.868Z,25.16
2023-05-04T08:33:36.892Z,25.86
2023-05-04T08:36:05.362Z,26.09
2023-05-04T08:38:33.408Z,26.16
2023-05-04T08:41:03.501Z,26.06
2023-05-04T08:43:36.501Z,25.63
2023-05-04T08:46:05.321Z,25.35
2023-05-04T08:48:34.525Z,24.82
2023-05-04T08:51:04.350Z,24.52
2023-05-04T08:53:34.120Z,24.16
2023-05-04T08:56:04.641Z,23.65
2023-05-04T08:58:37.973Z,23.33
2023-05-04T09:01:08.433Z,23.21
2023-05-04T09:03:37.399Z,22.82
2023-05-04T09:06:07.942Z,22.58
2023-05-04T09:08:36.257Z,22.14
2023-05-04T09:11:04.363Z,22.05
2023-05-04T09:13:32.386Z,22.04
2023-05-04T09:16:01.796Z,21.97
2023-05-04T09:18:37.886Z,22.11
2023-05-04T09:21:06.524Z,21.97
2023-05-04T09:23:34.805Z,22.22
2023-05-04T09:26:02.861Z,22.05
2023-05-04T09:28:38.694Z,22.04
2023-05-04T09:31:09.501Z,22.05
2023-05-04T09:33:37.852Z,22.30
2023-05-04T09:36:17.079Z,22.45
2023-05-04T09:38:45.338Z,22.44
2023-05-04T09:41:13.342Z,22.56
2023-05-04T09:43:42.911Z,22.20
2023-05-04T09:46:19.325Z,21.84
2023-05-04T09:48:55.156Z,21.66
2023-05-04T09:51:26.738Z,21.54
2023-05-04T09:53:56.122Z,21.33
2023-05-04T09:56:31.833Z,21.35
2023-05-04T09:59:00.634Z,21.47
2023-05-04T10:01:31.254Z,21.22
2023-05-04T10:03:59.327Z,20.86
2023-05-04T10:06:30.118Z,20.79
2023-05-04T10:09:00.526Z,21.06
2023-05-04T10:11:29.699Z,21.37
2023-05-04T10:13:57.949Z,21.07
2023-05-04T10:16:38.021Z,20.85
2023-05-04T10:19:37.176Z,20.79
2023-05-04T10:22:19.314Z,20.97
2023-05-04T10:25:03.625Z,20.69
2023-05-04T10:27:45.902Z,20.47
2023-05-04T10:30:17.000Z,20.29
2023-05-04T10:32:46.669Z,20.39
2023-05-04T10:35:18.633Z,20.42
2023-05-04T10:37:54.517Z,21.13
2023-05-04T10:40:35.454Z,21.01
2023-05-04T10:43:03.547Z,20.96
2023-05-04T10:45:39.432Z,20.67
2023-05-04T10:48:09.924Z,20.67
2023-05-04T10:50:45.142Z,20.49
2023-05-04T10:53:13.988Z,20.39
2023-05-04T10:55:42.744Z,20.34
2023-05-04T10:58:14.747Z,20.20
2023-05-04T11:00:44.813Z,19.94
2023-05-04T11:03:15.230Z,19.77
2023-05-04T11:05:44.552Z,19.73
2023-05-04T11:08:20.127Z,19.57
2023-05-04T11:10:48.963Z,19.57
2023-05-04T11:13:17.402Z,19.39
2023-05-04T11:15:49.724Z,19.24
2023-05-04T11:18:29.003Z,19.22
2023-05-04T11:20:57.233Z,19.20
2023-05-04T11:23:25.845Z,19.31
2023-05-04T11:25:54.858Z,19.08
2023-05-04T11:28:32.827Z,18.78
2023-05-04T11:31:01.024Z,18.88
2023-05-04T11:33:31.842Z,18.67
2023-05-04T11:36:02.302Z,18.66
2023-05-04T11:38:30.861Z,18.71
2023-05-04T11:40:58.898Z,18.64
2023-05-04T11:43:27.268Z,18.54
2023-05-04T11:45:59.443Z,18.66
2023-05-04T11:48:27.994Z,18.96
2023-05-04T11:50:58.028Z,18.87
2023-05-04T11:53:26.377Z,18.92
2023-05-04T11:55:54.537Z,18.84
2023-05-04T11:58:26.349Z,18.87
2023-05-04T12:00:57.072Z,18.67
2023-05-04T12:03:35.474Z,18.63
2023-05-04T12:06:09.313Z,18.70
2023-05-04T12:08:42.188Z,18.61
2023-05-04T12:11:14.981Z,18.63
2023-05-04T12:13:45.013Z,18.61
2023-05-04T12:16:14.452Z,18.58
2023-05-04T12:18:44.343Z,18.46
2023-05-04T12:21:15.608Z,18.60
2023-05-04T12:23:44.028Z,18.45
2023-05-04T12:26:12.845Z,18.56
2023-05-04T12:28:42.256Z,18.72
2023-05-04T12:31:10.503Z,18.71
2023-05-04T12:33:38.532Z,18.48
2023-05-04T12:36:08.442Z,18.47
2023-05-04T12:38:39.038Z,18.66
2023-05-04T12:41:10.822Z,18.51
2023-05-04T12:43:39.247Z,18.62
2023-05-04T12:46:07.457Z,18.70
2023-05-04T12:48:35.924Z,18.71
2023-05-04T12:51:05.040Z,18.69
2023-05-04T12:53:33.156Z,18.88
2023-05-04T12:56:03.777Z,18.76
2023-05-04T12:58:32.127Z,18.69
2023-05-04T13:01:00.518Z,18.68
2023-05-04T13:03:28.736Z,18.54
2023-05-04T13:05:58.052Z,18.49
2023-05-04T13:08:26.078Z,18.42
2023-05-04T13:10:54.212Z,18.27
2023-05-04T13:13:28.720Z,18.44
2023-05-04T13:15:57.350Z,18.43
2023-05-04T13:18:27.415Z,18.25
2023-05-04T13:20:56.086Z,18.25
2023-05-04T13:23:24.575Z,18.22
2023-05-04T13:25:52.835Z,18.12
2023-05-04T13:28:20.963Z,18.18
2023-05-04T13:30:50.736Z,18.29
2023-05-04T13:33:28.831Z,18.21
2023-05-04T13:35:58.986Z,18.19
2023-05-04T13:38:27.410Z,17.99
2023-05-04T13:40:56.094Z,17.78
2023-05-04T13:43:24.518Z,17.76
2023-05-04T13:45:53.887Z,17.74
2023-05-04T13:48:21.923Z,17.81
2023-05-04T13:50:49.908Z,17.82
2023-05-04T13:53:17.950Z,17.80
2023-05-04T13:55:46.130Z,17.71
2023-05-04T13:58:14.257Z,17.69
2023-05-04T14:00:43.226Z,17.44
2023-05-04T14:03:12.685Z,17.27
2023-05-04T14:05:40.666Z,17.48
2023-05-04T14:08:08.664Z,17.51
2023-05-04T14:10:38.129Z,17.28
2023-05-04T14:13:06.280Z,17.31
2023-05-04T14:15:34.289Z,17.12
2023-05-04T14:18:02.277Z,17.18
2023-05-04T14:20:31.701Z,17.15
2023-05-04T14:22:59.759Z,17.19
2023-05-04T14:25:27.793Z,17.02
2023-05-04T14:27:55.796Z,17.05
2023-05-04T14:30:24.050Z,17.09
2023-05-04T14:32:54.253Z,17.30
2023-05-04T14:35:22.566Z,17.13
2023-05-04T14:37:51.921Z,17.24
2023-05-04T14:40:19.982Z,17.18
2023-05-04T14:42:48.180Z,17.17
2023-05-04T14:45:16.229Z,17.39
2023-05-04T14:47:44.309Z,17.44
2023-05-04T14:50:13.408Z,18.10
2023-05-04T14:52:41.472Z,18.48
2023-05-04T14:55:12.099Z,18.75
2023-05-04T14:57:40.125Z,18.66
2023-05-04T15:00:10.010Z,18.91
2023-05-04T15:02:39.268Z,18.68
2023-05-04T15:05:09.783Z,18.71
2023-05-04T15:07:37.938Z,18.54
2023-05-04T15:10:08.148Z,18.47
2023-05-04T15:12:39.624Z,18.33
2023-05-04T15:15:08.590Z,18.16
2023-05-04T15:17:36.818Z,18.22
2023-05-04T15:20:05.487Z,17.96
2023-05-04T15:22:33.854Z,18.04
2023-05-04T15:25:02.646Z,17.84
2023-05-04T15:27:30.822Z,17.75
2023-05-04T15:30:00.464Z,17.64
2023-05-04T15:32:28.804Z,17.65
2023-05-04T15:35:04.561Z,17.73
2023-05-04T15:37:33.677Z,17.67
2023-05-04T15:40:02.735Z,17.62
2023-05-04T15:42:30.947Z,17.63
2023-05-04T15:45:00.459Z,17.47
2023-05-04T15:47:28.515Z,17.45
2023-05-04T15:49:56.618Z,17.31
2023-05-04T15:52:25.049Z,17.43
2023-05-04T15:54:53.047Z,16.99
2023-05-04T15:57:21.019Z,17.19
2023-05-04T15:59:49.683Z,16.98
2023-05-04T16:02:19.587Z,17.05
2023-05-04T16:04:47.649Z,17.20
2023-05-04T16:07:15.990Z,16.96
2023-05-04T16:09:43.991Z,16.95
2023-05-04T16:12:12.106Z,17.05
2023-05-04T16:14:40.076Z,17.04
2023-05-04T16:17:08.337Z,16.79
2023-05-04T16:19:38.116Z,16.69
2023-05-04T16:22:06.308Z,16.86
2023-05-04T16:24:34.447Z,16.77
2023-05-04T16:27:03.355Z,16.75
2023-05-04T16:29:31.337Z,16.59
2023-05-04T16:31:59.320Z,16.74
2023-05-04T16:34:27.372Z,16.47
2023-05-04T16:36:56.800Z,16.53
2023-05-04T16:39:30.010Z,16.88
2023-05-04T16:41:58.461Z,16.91
2023-05-04T16:44:26.553Z,16.93
2023-05-04T16:46:54.561Z,16.77
2023-05-04T16:49:22.764Z,16.58
2023-05-04T16:51:50.767Z,16.81
2023-05-04T16:54:21.122Z,16.74
2023-05-04T16:56:49.235Z,16.83
2023-05-04T16:59:17.680Z,16.66
2023-05-04T17:01:45.813Z,16.49
2023-05-04T17:04:13.771Z,16.84
2023-05-04T17:06:41.885Z,16.94
2023-05-04T17:09:09.881Z,16.78
2023-05-04T17:11:39.398Z,16.59
2023-05-04T17:14:07.463Z,16.81
2023-05-04T17:16:35.523Z,16.94
2023-05-04T17:19:03.667Z,16.54
2023-05-04T17:21:32.886Z,16.51
2023-05-04T17:24:00.886Z,16.67
2023-05-04T17:26:29.062Z,16.72
2023-05-04T17:28:58.498Z,16.59
2023-05-04T17:31:26.517Z,16.76
2023-05-04T17:33:54.567Z,16.56
2023-05-04T17:36:22.660Z,16.59
2023-05-04T17:38:50.757Z,16.79
2023-05-04T17:41:18.935Z,17.30
2023-05-04T17:43:47.442Z,17.06
2023-05-04T17:46:16.828Z,17.21
2023-05-04T17:48:46.000Z,17.48
2023-05-04T17:51:14.020Z,17.53
2023-05-04T17:53:41.964Z,17.83
2023-05-04T17:56:10.047Z,18.22
2023-05-04T17:58:38.145Z,17.96
2023-05-04T18:01:06.148Z,18.13
2023-05-04T18:03:35.594Z,18.66
2023-05-04T18:06:03.721Z,19.14
2023-05-04T18:08:31.617Z,19.27
2023-05-04T18:10:59.776Z,19.61
2023-05-04T18:13:27.829Z,19.62
2023-05-04T18:15:55.742Z,19.78
2023-05-04T18:18:23.772Z,20.09
2023-05-04T18:20:53.227Z,20.12
2023-05-04T18:23:21.302Z,20.39
2023-05-04T18:25:49.168Z,20.66
2023-05-04T18:28:17.412Z,20.87
2023-05-04T18:30:45.699Z,20.96
2023-05-04T18:33:13.597Z,20.79
2023-05-04T18:35:41.935Z,21.01
2023-05-04T18:38:11.612Z,20.70
2023-05-04T18:40:39.600Z,21.10
2023-05-04T18:43:07.582Z,20.68
2023-05-04T18:45:35.745Z,21.08
2023-05-04T18:48:03.901Z,21.29
2023-05-04T18:50:31.820Z,21.00
2023-05-04T18:53:00.345Z,21.10
2023-05-04T18:55:29.715Z,21.36
2023-05-04T18:57:57.663Z,21.23
2023-05-04T19:00:26.780Z,21.19
2023-05-04T19:02:54.845Z,20.95
2023-05-04T19:05:22.845Z,21.35
2023-05-04T19:07:50.755Z,21.02
2023-05-04T19:10:18.908Z,21.26
2023-05-04T19:12:48.398Z,21.46
2023-05-04T19:15:16.716Z,21.37
2023-05-04T19:17:44.716Z,21.26
2023-05-04T19:20:13.138Z,21.42
2023-05-04T19:22:41.204Z,21.57
2023-05-04T19:25:11.171Z,21.53
2023-05-04T19:27:43.602Z,21.62
2023-05-04T19:30:13.501Z,21.45
2023-05-04T19:32:41.705Z,21.73
2023-05-04T19:35:10.085Z,21.48
2023-05-04T19:37:38.218Z,21.58
2023-05-04T19:40:07.361Z,21.56
2023-05-04T19:42:35.621Z,21.45
2023-05-04T19:45:05.461Z,21.56
2023-05-04T19:47:34.835Z,21.63
2023-05-04T19:50:03.055Z,21.51
2023-05-04T19:52:31.020Z,21.47
2023-05-04T19:54:59.222Z,21.40
2023-05-04T19:57:27.181Z,21.65
2023-05-04T19:59:56.707Z,21.68
2023-05-04T20:02:25.171Z,21.47
2023-05-04T20:04:54.631Z,21.29
2023-05-04T20:07:23.064Z,21.29
2023-05-04T20:09:51.007Z,21.52
2023-05-04T20:12:19.019Z,21.32
2023-05-04T20:14:47.224Z,21.26
2023-05-04T20:17:15.657Z,21.44
2023-05-04T20:19:44.019Z,21.39
2023-05-04T20:22:13.343Z,21.55
2023-05-04T20:24:41.942Z,21.47
2023-05-04T20:27:09.872Z,21.25
2023-05-04T20:29:37.990Z,21.68
2023-05-04T20:32:07.274Z,21.44
2023-05-04T20:34:35.750Z,21.38
2023-05-04T20:37:03.757Z,21.83
2023-05-04T20:39:33.284Z,21.78
2023-05-04T20:42:01.487Z,21.50
2023-05-04T20:44:29.544Z,21.58
2023-05-04T20:46:57.640Z,21.47
2023-05-04T20:49:25.943Z,21.52
2023-05-04T20:51:54.029Z,21.76
2023-05-04T20:54:22.343Z,21.82
2023-05-04T20:56:51.796Z,21.52
2023-05-04T20:59:20.033Z,21.71
2023-05-04T21:01:48.102Z,21.50
2023-05-04T21:04:16.157Z,21.70
2023-05-04T21:06:46.390Z,21.61
2023-05-04T21:09:16.551Z,21.93
2023-05-04T21:11:44.707Z,21.84
2023-05-04T21:14:14.059Z,21.75
2023-05-04T21:16:42.059Z,22.03
2023-05-04T21:19:10.052Z,21.53
2023-05-04T21:21:40.799Z,21.53
2023-05-04T21:24:12.169Z,21.75
2023-05-04T21:26:40.435Z,21.72
2023-05-04T21:29:13.421Z,21.94
2023-05-04T21:31:42.561Z,21.77
2023-05-04T21:34:10.632Z,21.71
2023-05-04T21:36:40.456Z,21.63
2023-05-04T21:39:08.494Z,21.99
2023-05-04T21:41:36.578Z,21.62
2023-05-04T21:44:04.696Z,22.00
2023-05-04T21:46:34.105Z,22.02
2023-05-04T21:49:02.182Z,21.98
2023-05-04T21:51:30.410Z,21.69
2023-05-04T21:53:58.562Z,21.94
2023-05-04T21:56:26.481Z,22.04
2023-05-04T21:58:54.523Z,21.88
2023-05-04T22:01:22.666Z,21.79
2023-05-04T22:03:52.857Z,21.83
2023-05-04T22:06:22.057Z,22.26
2023-05-04T22:08:49.995Z,22.00
2023-05-04T22:11:18.026Z,22.02
2023-05-04T22:13:46.049Z,22.16
2023-05-04T22:16:13.977Z,21.79
2023-05-04T22:18:42.067Z,21.82
2023-05-04T22:21:11.445Z,22.10
2023-05-04T22:23:39.636Z,21.90
2023-05-04T22:26:07.724Z,22.24
2023-05-04T22:28:35.827Z,22.22
2023-05-04T22:31:03.810Z,22.18
2023-05-04T22:33:31.946Z,21.84
2023-05-04T22:36:00.039Z,21.85
2023-05-04T22:38:29.392Z,22.03
2023-05-04T22:40:57.420Z,21.62
2023-05-04T22:43:25.411Z,21.70
2023-05-04T22:45:53.441Z,22.00
2023-05-04T22:48:21.552Z,21.74
2023-05-04T22:50:49.885Z,21.98
2023-05-04T22:53:17.938Z,22.10
2023-05-04T22:55:48.268Z,21.77
2023-05-04T22:58:16.298Z,21.87
2023-05-04T23:00:44.316Z,21.96
2023-05-04T23:03:12.403Z,22.00
2023-05-04T23:05:40.551Z,22.15
2023-05-04T23:08:08.667Z,21.97
2023-05-04T23:10:36.761Z,22.09
2023-05-04T23:13:06.155Z,22.13
2023-05-04T23:15:34.206Z,22.09
2023-05-04T23:18:02.231Z,22.12
2023-05-04T23:20:30.299Z,21.91
2023-05-04T23:22:58.218Z,21.93
2023-05-04T23:25:26.582Z,22.24
2023-05-04T23:27:54.738Z,22.09
2023-05-04T23:30:24.222Z,22.17
2023-05-04T23:32:52.372Z,22.01
2023-05-04T23:35:20.370Z,22.12
2023-05-04T23:37:48.418Z,22.14
2023-05-04T23:40:16.444Z,21.88
2023-05-04T23:42:44.546Z,21.94
2023-05-04T23:45:12.888Z,22.12
2023-05-04T23:47:42.295Z,22.05
2023-05-04T23:50:11.599Z,21.95
2023-05-04T23:52:39.625Z,22.00
2023-05-04T23:55:07.939Z,22.19
2023-05-04T23:57:36.387Z,22.14
